createdAt,value
2019-05-29T00:01:01.475Z,71.17
2019-05-29T00:03:30.301Z,71.40
2019-05-29T00:05:58.890Z,71.58
2019-05-29T00:08:27.341Z,72.01
2019-05-29T00:10:55.870Z,72.25
2019-05-29T00:13:24.515Z,72.47
2019-05-29T00:15:52.970Z,72.66
2019-05-29T00:18:23.249Z,72.80
2019-05-29T00:20:55.450Z,72.93
2019-05-29T00:23:24.090Z,73.10
2019-05-29T00:25:52.550Z,73.11
2019-05-29T00:28:21.205Z,73.13
2019-05-29T00:30:49.670Z,73.14
2019-05-29T00:33:18.389Z,73.15
2019-05-29T00:35:47.268Z,73.12
2019-05-29T00:38:20.524Z,73.18
2019-05-29T00:40:49.172Z,73.23
2019-05-29T00:43:17.678Z,73.40
2019-05-29T00:45:46.154Z,73.30
2019-05-29T00:48:16.023Z,73.24
2019-05-29T00:50:44.823Z,73.25
2019-05-29T00:53:14.281Z,73.27
2019-05-29T00:55:42.886Z,73.37
2019-05-29T00:58:11.588Z,73.36
2019-05-29T01:00:40.442Z,73.37
2019-05-29T01:03:09.563Z,73.36
2019-05-29T01:05:39.469Z,73.35
2019-05-29T01:11:48.613Z,73.34
2019-05-29T01:14:17.374Z,73.21
2019-05-29T01:16:45.855Z,73.21
2019-05-29T01:19:26.689Z,73.20
2019-05-29T01:21:56.896Z,73.31
2019-05-29T01:24:26.578Z,73.33
2019-05-29T01:26:55.129Z,73.40
2019-05-29T01:29:23.762Z,73.52
2019-05-29T01:31:52.656Z,73.80
2019-05-29T01:34:22.026Z,74.12
2019-05-29T01:36:50.747Z,74.17
2019-05-29T01:39:19.382Z,74.07
2019-05-29T01:41:47.898Z,74.01
2019-05-29T01:44:17.421Z,74.00
2019-05-29T01:46:46.059Z,74.02
2019-05-29T01:49:16.047Z,74.16
2019-05-29T01:51:44.646Z,74.20
2019-05-29T01:54:13.107Z,74.21
2019-05-29T01:56:41.989Z,74.56
2019-05-29T01:59:10.459Z,74.49
2019-05-29T02:01:39.138Z,74.43
2019-05-29T02:04:07.814Z,74.20
2019-05-29T02:06:36.275Z,74.22
2019-05-29T02:09:06.967Z,74.13
2019-05-29T02:11:35.467Z,74.12
2019-05-29T02:14:03.922Z,74.19
2019-05-29T02:16:32.709Z,74.23
2019-05-29T02:19:01.233Z,74.37
2019-05-29T02:21:29.699Z,74.54
2019-05-29T02:23:58.180Z,74.57
2019-05-29T02:26:26.754Z,74.56
2019-05-29T02:28:55.222Z,74.59
2019-05-29T02:31:26.395Z,74.42
2019-05-29T02:33:54.549Z,74.35
2019-05-29T02:36:24.614Z,74.22
2019-05-29T02:38:53.514Z,74.11
2019-05-29T02:41:24.171Z,73.95
2019-05-29T02:43:52.434Z,73.92
2019-05-29T02:46:21.708Z,73.85
2019-05-29T02:48:51.136Z,73.98
2019-05-29T02:51:19.874Z,73.98
2019-05-29T02:53:48.734Z,73.98
2019-05-29T02:56:17.206Z,74.04
2019-05-29T02:58:46.093Z,73.98
2019-05-29T03:01:14.594Z,74.01
2019-05-29T03:03:43.102Z,74.13
2019-05-29T03:06:13.175Z,74.20
2019-05-29T03:08:41.698Z,74.19
2019-05-29T03:11:10.390Z,74.22
2019-05-29T03:13:38.949Z,74.37
2019-05-29T03:16:12.162Z,74.54
2019-05-29T03:18:37.998Z,74.59
2019-05-29T03:21:06.439Z,74.72
2019-05-29T03:23:36.344Z,74.94
2019-05-29T03:26:05.587Z,75.13
2019-05-29T03:28:35.037Z,75.30
2019-05-29T03:31:03.786Z,75.48
2019-05-29T03:33:43.558Z,75.67
2019-05-29T03:36:04.264Z,75.93
2019-05-29T03:38:34.285Z,76.07
2019-05-29T03:41:03.155Z,76.39
2019-05-29T03:43:33.653Z,76.57
2019-05-29T03:46:01.825Z,76.86
2019-05-29T03:48:32.206Z,77.14
2019-05-29T03:51:00.596Z,77.27
2019-05-29T03:53:29.320Z,77.40
2019-05-29T03:55:58.380Z,77.60
2019-05-29T03:58:28.714Z,77.87
2019-05-29T04:00:57.179Z,77.75
2019-05-29T04:03:26.937Z,77.77
2019-05-29T04:05:55.447Z,77.85
2019-05-29T04:08:23.929Z,77.80
2019-05-29T04:10:52.850Z,77.88
2019-05-29T04:13:21.333Z,77.91
2019-05-29T04:15:49.794Z,78.06
2019-05-29T04:18:20.819Z,78.23
2019-05-29T04:20:51.449Z,78.31
2019-05-29T04:23:20.756Z,78.32
2019-05-29T04:25:51.402Z,78.19
2019-05-29T04:28:20.802Z,78.11
2019-05-29T04:30:49.342Z,78.04
2019-05-29T04:33:17.788Z,77.87
2019-05-29T04:35:46.558Z,77.66
2019-05-29T04:38:15.028Z,77.37
2019-05-29T04:40:43.542Z,76.88
2019-05-29T04:43:12.026Z,76.48
2019-05-29T04:45:40.511Z,76.01
2019-05-29T04:48:09.234Z,75.70
2019-05-29T04:50:40.173Z,75.29
2019-05-29T04:53:07.892Z,74.55
2019-05-29T04:55:37.012Z,73.88
2019-05-29T04:58:05.777Z,73.42
2019-05-29T05:00:35.224Z,72.78
2019-05-29T05:03:04.002Z,72.28
2019-05-29T05:05:33.259Z,71.91
2019-05-29T05:08:01.808Z,71.26
2019-05-29T05:10:36.003Z,70.62
2019-05-29T05:13:06.400Z,70.36
2019-05-29T05:15:36.085Z,69.14
2019-05-29T05:18:06.775Z,69.33
2019-05-29T05:20:36.250Z,68.99
2019-05-29T05:23:05.216Z,68.42
2019-05-29T05:25:34.215Z,67.60
2019-05-29T05:28:04.432Z,66.66
2019-05-29T05:30:38.583Z,65.67
2019-05-29T05:33:08.878Z,64.87
2019-05-29T05:35:37.360Z,64.44
2019-05-29T05:38:05.890Z,64.12
2019-05-29T05:40:37.922Z,63.82
2019-05-29T05:43:05.195Z,64.00
2019-05-29T05:45:35.009Z,63.79
2019-05-29T05:48:04.035Z,63.09
2019-05-29T05:50:33.303Z,62.92
2019-05-29T05:53:02.339Z,63.05
2019-05-29T05:55:31.460Z,62.97
2019-05-29T05:58:00.087Z,62.95
2019-05-29T06:00:34.180Z,62.43
2019-05-29T06:03:02.957Z,62.11
2019-05-29T06:05:32.044Z,61.94
2019-05-29T06:08:00.827Z,59.91
2019-05-29T06:10:29.681Z,61.28
2019-05-29T06:12:58.147Z,61.38
2019-05-29T06:15:27.098Z,61.47
2019-05-29T06:18:16.981Z,61.24
2019-05-29T06:20:26.308Z,60.38
2019-05-29T06:22:54.762Z,60.62
2019-05-29T06:25:23.671Z,60.91
2019-05-29T06:27:52.198Z,60.96
2019-05-29T06:30:22.300Z,60.59
2019-05-29T06:32:51.021Z,59.88
2019-05-29T06:35:19.600Z,60.36
2019-05-29T06:37:48.239Z,60.30
2019-05-29T06:40:44.029Z,60.01
2019-05-29T06:43:25.786Z,59.83
2019-05-29T06:45:55.018Z,59.89
2019-05-29T06:48:41.540Z,59.83
2019-05-29T06:50:57.255Z,59.36
2019-05-29T06:53:25.652Z,58.72
2019-05-29T06:55:56.163Z,58.36
2019-05-29T06:58:27.008Z,58.57
2019-05-29T07:00:55.812Z,58.80
2019-05-29T07:03:24.390Z,58.30
2019-05-29T07:05:53.148Z,57.07
2019-05-29T07:08:37.638Z,57.52
2019-05-29T07:10:52.047Z,57.73
2019-05-29T07:13:20.601Z,57.35
2019-05-29T07:15:49.488Z,57.04
2019-05-29T07:18:17.944Z,56.47
2019-05-29T07:20:46.993Z,56.21
2019-05-29T07:23:15.754Z,55.67
2019-05-29T07:25:45.628Z,55.73
2019-05-29T07:28:14.298Z,55.48
2019-05-29T07:30:48.310Z,54.93
2019-05-29T07:33:13.054Z,55.04
2019-05-29T07:35:41.517Z,54.06
2019-05-29T07:38:10.331Z,54.86
2019-05-29T07:40:40.485Z,55.23
2019-05-29T07:43:09.018Z,55.49
2019-05-29T07:45:37.849Z,55.73
2019-05-29T07:48:06.819Z,56.15
2019-05-29T07:50:35.457Z,55.94
2019-05-29T07:53:04.117Z,55.80
2019-05-29T07:55:32.616Z,55.65
2019-05-29T07:58:01.059Z,55.66
2019-05-29T08:00:35.885Z,55.57
2019-05-29T08:03:00.076Z,55.71
2019-05-29T08:05:28.546Z,55.40
2019-05-29T08:07:57.528Z,55.24
2019-05-29T08:10:26.157Z,55.06
2019-05-29T08:12:55.967Z,54.73
2019-05-29T08:15:24.767Z,54.79
2019-05-29T08:17:53.245Z,54.95
2019-05-29T08:20:22.094Z,55.01
2019-05-29T08:22:51.078Z,54.96
2019-05-29T08:25:19.962Z,55.12
2019-05-29T08:27:48.887Z,55.46
2019-05-29T08:30:19.545Z,55.68
2019-05-29T08:32:49.246Z,55.02
2019-05-29T08:35:18.027Z,54.70
2019-05-29T08:37:46.998Z,53.45
2019-05-29T08:40:16.076Z,52.70
2019-05-29T08:42:45.210Z,51.68
2019-05-29T08:45:14.204Z,51.58
2019-05-29T08:47:43.483Z,51.21
2019-05-29T08:50:18.443Z,50.98
2019-05-29T08:52:43.910Z,51.00
2019-05-29T08:55:13.938Z,50.96
2019-05-29T08:57:44.293Z,50.60
2019-05-29T09:00:15.762Z,51.07
2019-05-29T09:02:44.760Z,51.56
2019-05-29T09:05:13.536Z,52.27
2019-05-29T09:07:43.372Z,52.65
2019-05-29T09:10:13.766Z,53.33
2019-05-29T09:12:45.963Z,53.06
2019-05-29T09:15:12.890Z,53.00
2019-05-29T09:21:22.887Z,52.34
2019-05-29T09:23:52.827Z,52.17
2019-05-29T09:26:24.661Z,52.14
2019-05-29T09:28:51.903Z,52.90
2019-05-29T09:31:21.893Z,51.73
2019-05-29T09:33:50.571Z,50.93
2019-05-29T09:36:22.776Z,48.68
2019-05-29T09:38:51.486Z,48.19
2019-05-29T09:41:21.719Z,48.12
2019-05-29T09:43:59.180Z,48.30
2019-05-29T09:46:23.809Z,47.70
2019-05-29T09:48:52.496Z,47.48
2019-05-29T09:51:22.011Z,47.27
2019-05-29T09:53:52.495Z,46.51
2019-05-29T09:56:21.119Z,45.76
2019-05-29T09:58:49.773Z,44.30
2019-05-29T10:01:24.013Z,45.20
2019-05-29T10:03:48.694Z,44.42
2019-05-29T10:06:17.401Z,45.39
2019-05-29T10:08:45.877Z,45.59
2019-05-29T10:11:14.340Z,45.72
2019-05-29T10:13:42.918Z,46.15
2019-05-29T10:17:26.856Z,46.58
2019-05-29T10:19:55.899Z,46.79
2019-05-29T10:22:25.617Z,46.98
2019-05-29T10:24:56.226Z,47.07
2019-05-29T10:27:24.674Z,46.66
2019-05-29T10:29:54.245Z,45.54
2019-05-29T10:32:22.833Z,44.82
2019-05-29T10:34:52.667Z,44.65
2019-05-29T10:37:21.308Z,44.05
2019-05-29T10:39:50.990Z,44.43
2019-05-29T10:42:20.730Z,45.01
2019-05-29T10:44:51.305Z,45.90
2019-05-29T10:47:19.910Z,45.25
2019-05-29T10:49:49.772Z,45.36
2019-05-29T10:52:18.298Z,45.00
2019-05-29T10:54:46.740Z,45.65
2019-05-29T10:57:15.208Z,45.91
2019-05-29T10:59:44.619Z,45.74
2019-05-29T11:02:13.047Z,45.72
2019-05-29T11:04:41.489Z,45.73
2019-05-29T11:07:09.923Z,45.55
2019-05-29T11:13:06.817Z,46.12
2019-05-29T11:15:35.361Z,45.78
2019-05-29T11:18:03.891Z,46.03
2019-05-29T11:20:32.467Z,46.14
2019-05-29T11:23:00.944Z,46.63
2019-05-29T11:25:29.566Z,46.60
2019-05-29T11:28:01.130Z,46.58
2019-05-29T11:30:29.832Z,46.36
2019-05-29T11:33:00.984Z,46.22
2019-05-29T11:35:28.903Z,45.50
2019-05-29T11:37:58.733Z,43.48
2019-05-29T11:40:27.427Z,43.52
2019-05-29T11:42:56.945Z,44.35
2019-05-29T11:45:27.251Z,44.60
2019-05-29T11:47:57.370Z,45.52
2019-05-29T11:50:27.704Z,45.80
2019-05-29T11:52:56.431Z,46.17
2019-05-29T11:55:25.302Z,45.88
2019-05-29T11:57:55.925Z,46.17
2019-05-29T12:00:24.592Z,46.03
2019-05-29T12:02:53.935Z,46.09
2019-05-29T12:05:23.315Z,45.68
2019-05-29T12:07:53.325Z,45.55
2019-05-29T12:10:24.528Z,45.70
2019-05-29T12:12:53.450Z,45.42
2019-05-29T12:15:22.536Z,45.89
2019-05-29T12:18:00.392Z,45.74
2019-05-29T12:20:27.906Z,45.51
2019-05-29T18:52:44.921Z,45.52
2019-05-29T18:55:13.563Z,45.52
2019-05-29T18:57:42.031Z,40.17
2019-05-29T19:00:13.847Z,40.97
2019-05-29T19:02:42.319Z,41.56
2019-05-29T19:05:11.695Z,42.19
2019-05-29T19:07:40.325Z,42.71
2019-05-29T19:10:09.613Z,43.11
2019-05-29T19:12:38.062Z,43.73
2019-05-29T19:15:08.280Z,44.45
2019-05-29T19:17:37.455Z,44.63
2019-05-29T19:20:09.327Z,44.61
2019-05-29T19:22:37.980Z,45.13
2019-05-29T19:25:07.791Z,46.05
2019-05-29T19:27:41.613Z,46.29
2019-05-29T19:30:09.461Z,46.67
2019-05-29T19:32:37.941Z,47.32
2019-05-29T19:35:11.604Z,48.11
2019-05-29T19:37:40.317Z,48.67
2019-05-29T19:40:09.439Z,49.21
2019-05-29T19:42:39.581Z,49.81
2019-05-29T19:45:12.281Z,50.26
2019-05-29T19:47:40.981Z,50.84
2019-05-29T19:50:11.629Z,51.29
2019-05-29T19:52:40.242Z,51.76
2019-05-29T19:55:09.344Z,52.27
2019-05-29T19:57:54.170Z,52.87
2019-05-29T20:00:10.420Z,52.94
2019-05-29T20:02:39.724Z,53.21
2019-05-29T20:05:08.648Z,53.55
2019-05-29T20:07:37.547Z,54.04
2019-05-29T20:10:07.622Z,54.44
2019-05-29T20:12:37.913Z,54.66
2019-05-29T20:15:07.818Z,54.75
2019-05-29T20:17:36.340Z,55.21
2019-05-29T20:20:08.779Z,55.32
2019-05-29T20:22:37.423Z,55.33
2019-05-29T20:25:08.572Z,55.15
2019-05-29T20:27:38.337Z,54.98
2019-05-29T20:30:09.658Z,54.80
2019-05-29T20:32:38.948Z,54.99
2019-05-29T20:35:08.097Z,55.64
2019-05-29T20:37:36.600Z,56.32
2019-05-29T20:40:06.917Z,56.22
2019-05-29T20:42:36.349Z,56.56
2019-05-29T20:45:07.678Z,56.77
2019-05-29T20:47:36.161Z,56.52
2019-05-29T20:50:07.649Z,56.28
2019-05-29T20:52:49.898Z,56.42
2019-05-29T20:55:18.992Z,56.38
2019-05-29T20:57:47.506Z,56.69
2019-05-29T21:00:18.693Z,56.68
2019-05-29T21:02:47.355Z,56.85
2019-05-29T21:05:17.209Z,57.19
2019-05-29T21:07:45.685Z,57.11
2019-05-29T21:10:14.970Z,56.40
2019-05-29T21:12:47.105Z,55.68
2019-05-29T21:15:14.272Z,54.81
2019-05-29T21:17:44.073Z,54.21
2019-05-29T21:20:12.840Z,53.65
2019-05-29T21:22:42.808Z,53.58
2019-05-29T21:25:17.214Z,53.66
2019-05-29T21:27:46.926Z,53.80
2019-05-29T21:30:13.298Z,54.09
2019-05-29T21:32:42.046Z,54.30
2019-05-29T21:35:12.154Z,54.43
2019-05-29T21:37:40.636Z,54.54
2019-05-29T21:40:09.881Z,54.27
2019-05-29T21:42:38.715Z,54.30
2019-05-29T21:45:08.315Z,54.45
2019-05-29T21:47:37.175Z,54.25
2019-05-29T21:50:09.949Z,54.01
2019-05-29T21:52:39.431Z,54.16
2019-05-29T21:55:08.707Z,54.05
2019-05-29T21:57:37.713Z,53.97
2019-05-29T22:00:13.311Z,54.07
2019-05-29T22:02:42.402Z,54.17
2019-05-29T22:05:11.429Z,54.29
2019-05-29T22:07:40.718Z,55.03
2019-05-29T22:10:10.053Z,55.64
2019-05-29T22:12:38.524Z,55.89
2019-05-29T22:15:09.825Z,55.62
2019-05-29T22:17:38.568Z,55.75
2019-05-29T22:20:09.026Z,55.89
2019-05-29T22:22:37.488Z,56.11
2019-05-29T22:25:07.575Z,56.43
2019-05-29T22:27:37.020Z,56.63
2019-05-29T22:30:10.545Z,56.64
2019-05-29T22:32:39.086Z,56.90
2019-05-29T22:35:08.679Z,57.29
2019-05-29T22:37:37.136Z,57.34
2019-05-29T22:40:09.344Z,57.54
2019-05-29T22:42:37.832Z,57.64
2019-05-29T22:45:07.266Z,57.67
2019-05-29T22:47:35.764Z,57.72
2019-05-29T22:50:06.781Z,57.93
2019-05-29T22:52:35.632Z,58.19
2019-05-29T22:55:07.910Z,58.76
2019-05-29T22:57:36.382Z,59.03
2019-05-29T23:00:07.639Z,59.12
2019-05-29T23:02:36.103Z,59.24
2019-05-29T23:05:06.846Z,59.36
2019-05-29T23:07:35.336Z,59.54
2019-05-29T23:10:06.157Z,59.60
2019-05-29T23:12:34.618Z,59.68
2019-05-29T23:15:03.384Z,59.80
2019-05-29T23:17:31.865Z,59.70
2019-05-29T23:20:00.742Z,59.62
2019-05-29T23:22:29.691Z,59.44
2019-05-29T23:24:59.213Z,59.38
2019-05-29T23:27:27.896Z,59.38
2019-05-29T23:29:56.867Z,59.36
2019-05-29T23:32:25.456Z,59.34
2019-05-29T23:34:55.043Z,59.40
2019-05-29T23:37:23.693Z,59.61
2019-05-29T23:39:53.089Z,59.82
2019-05-29T23:42:21.659Z,60.03
2019-05-29T23:44:52.062Z,60.18
2019-05-29T23:47:20.432Z,60.16
2019-05-29T23:49:48.906Z,60.24
2019-05-29T23:52:17.422Z,60.46
2019-05-29T23:54:46.073Z,60.71
2019-05-29T23:57:14.606Z,60.80
2019-05-29T23:59:43.171Z,60.68
